createdAt,value
2023-03-05T00:01:56.731Z,61.60
2023-03-05T00:04:23.752Z,61.58
2023-03-05T00:06:51.157Z,61.64
2023-03-05T00:09:17.931Z,61.75
2023-03-05T00:11:44.796Z,61.86
2023-03-05T00:14:12.324Z,61.91
2023-03-05T00:16:39.681Z,61.91
2023-03-05T00:19:06.879Z,61.87
2023-03-05T00:21:41.763Z,61.97
2023-03-05T00:24:15.283Z,62.07
2023-03-05T00:26:42.201Z,62.11
2023-03-05T00:29:10.939Z,62.20
2023-03-05T00:31:38.514Z,62.20
2023-03-05T00:34:12.302Z,62.24
2023-03-05T00:36:52.445Z,62.26
2023-03-05T00:39:21.146Z,62.38
2023-03-05T00:41:47.808Z,62.25
2023-03-05T00:44:14.568Z,62.18
2023-03-05T00:46:41.824Z,62.35
2023-03-05T00:49:08.542Z,62.33
2023-03-05T00:51:35.440Z,62.40
2023-03-05T00:54:03.093Z,62.44
2023-03-05T00:56:29.872Z,62.51
2023-03-05T00:58:56.917Z,62.33
2023-03-05T01:01:24.450Z,62.50
2023-03-05T01:03:51.620Z,62.49
2023-03-05T01:06:19.125Z,62.53
2023-03-05T01:08:46.262Z,62.40
2023-03-05T01:11:13.417Z,62.45
2023-03-05T01:13:40.558Z,62.51
2023-03-05T01:16:07.995Z,62.50
2023-03-05T01:18:35.152Z,62.49
2023-03-05T01:21:02.037Z,62.50
2023-03-05T01:23:28.984Z,62.50
2023-03-05T01:26:00.232Z,62.40
2023-03-05T01:28:28.226Z,62.48
2023-03-05T01:30:55.115Z,62.40
2023-03-05T01:33:21.922Z,62.50
2023-03-05T01:35:49.917Z,62.47
2023-03-05T01:38:17.114Z,62.49
2023-03-05T01:40:44.426Z,62.47
2023-03-05T01:43:11.555Z,62.46
2023-03-05T01:45:39.453Z,62.50
2023-03-05T01:48:06.251Z,62.57
2023-03-05T01:50:33.646Z,62.55
2023-03-05T01:53:04.227Z,62.53
2023-03-05T01:55:34.769Z,62.40
2023-03-05T01:58:08.311Z,62.49
2023-03-05T02:00:40.063Z,62.41
2023-03-05T02:03:10.837Z,62.58
2023-03-05T02:05:39.395Z,62.59
2023-03-05T02:08:09.262Z,62.65
2023-03-05T02:10:42.597Z,62.66
2023-03-05T02:13:12.622Z,62.70
2023-03-05T02:15:39.960Z,62.70
2023-03-05T02:18:08.133Z,62.67
2023-03-05T02:20:54.013Z,62.80
2023-03-05T02:23:22.471Z,62.83
2023-03-05T02:25:49.460Z,62.85
2023-03-05T02:28:31.430Z,62.88
2023-03-05T02:30:58.256Z,62.81
2023-03-05T02:33:25.174Z,62.88
2023-03-05T02:35:52.361Z,62.93
2023-03-05T02:38:21.184Z,62.87
2023-03-05T02:40:48.082Z,62.99
2023-03-05T02:43:14.962Z,63.00
2023-03-05T02:45:41.835Z,63.07
2023-03-05T02:48:08.637Z,63.02
2023-03-05T02:50:36.594Z,63.11
2023-03-05T02:53:03.537Z,63.13
2023-03-05T02:55:30.234Z,63.18
2023-03-05T02:57:57.157Z,63.15
2023-03-05T03:00:24.362Z,63.22
2023-03-05T03:02:51.118Z,63.33
2023-03-05T03:05:18.169Z,63.40
2023-03-05T03:07:44.939Z,63.43
2023-03-05T03:10:12.407Z,63.48
2023-03-05T03:12:40.783Z,63.40
2023-03-05T03:15:09.296Z,63.57
2023-03-05T03:17:37.815Z,63.54
2023-03-05T03:20:07.787Z,63.58
2023-03-05T03:22:34.577Z,63.58
2023-03-05T03:25:02.070Z,63.55
2023-03-05T03:27:28.861Z,63.66
2023-03-05T03:29:55.564Z,63.68
2023-03-05T03:32:22.262Z,63.78
2023-03-05T03:34:49.335Z,63.69
2023-03-05T03:37:16.549Z,63.88
2023-03-05T03:39:43.232Z,63.82
2023-03-05T03:42:10.212Z,63.92
2023-03-05T03:44:36.945Z,63.95
2023-03-05T03:47:03.990Z,63.93
2023-03-05T03:49:30.803Z,63.90
2023-03-05T03:51:58.366Z,64.02
2023-03-05T03:54:25.182Z,64.21
2023-03-05T03:56:52.778Z,64.14
2023-03-05T03:59:19.719Z,64.19
2023-03-05T04:01:46.448Z,64.11
2023-03-05T04:04:14.092Z,64.22
2023-03-05T04:06:41.288Z,64.12
2023-03-05T04:09:08.437Z,64.22
2023-03-05T04:11:36.339Z,64.24
2023-03-05T04:14:03.775Z,64.19
2023-03-05T04:16:30.506Z,64.27
2023-03-05T04:18:58.070Z,64.50
2023-03-05T04:21:25.000Z,64.25
2023-03-05T04:23:51.648Z,64.28
2023-03-05T04:26:18.571Z,64.31
2023-03-05T04:28:45.232Z,64.36
2023-03-05T04:31:11.973Z,64.40
2023-03-05T04:33:38.813Z,64.38
2023-03-05T04:36:07.213Z,64.45
2023-03-05T04:38:33.915Z,64.42
2023-03-05T04:41:01.054Z,64.47
2023-03-05T04:43:28.010Z,64.49
2023-03-05T04:45:55.361Z,64.67
2023-03-05T04:48:22.373Z,64.61
2023-03-05T04:50:49.184Z,64.68
2023-03-05T04:53:15.964Z,64.67
2023-03-05T04:55:43.687Z,64.76
2023-03-05T04:58:10.479Z,64.76
2023-03-05T05:00:37.219Z,64.82
2023-03-05T05:03:04.084Z,64.76
2023-03-05T05:05:30.895Z,64.76
2023-03-05T05:07:58.773Z,64.77
2023-03-05T05:10:26.804Z,64.78
2023-03-05T05:12:53.741Z,64.89
2023-03-05T05:15:21.040Z,64.90
2023-03-05T05:17:48.058Z,64.92
2023-03-05T05:20:16.130Z,64.73
2023-03-05T05:22:43.144Z,64.90
2023-03-05T05:25:10.983Z,65.00
2023-03-05T05:27:39.249Z,65.00
2023-03-05T05:30:06.518Z,65.00
2023-03-05T05:32:34.376Z,65.06
2023-03-05T05:35:01.243Z,65.09
2023-03-05T05:37:28.028Z,65.16
2023-03-05T05:39:55.300Z,65.29
2023-03-05T05:42:23.769Z,65.28
2023-03-05T05:44:53.855Z,65.20
2023-03-05T05:47:22.053Z,65.34
2023-03-05T05:49:48.749Z,65.35
2023-03-05T05:52:15.506Z,65.47
2023-03-05T05:54:42.691Z,65.45
2023-03-05T05:57:09.365Z,65.50
2023-03-05T05:59:37.186Z,65.47
2023-03-05T06:02:04.877Z,65.63
2023-03-05T06:04:31.696Z,65.67
2023-03-05T06:06:58.864Z,65.69
2023-03-05T06:09:26.282Z,65.68
2023-03-05T06:11:53.073Z,65.84
2023-03-05T06:14:19.763Z,65.86
2023-03-05T06:16:47.086Z,65.88
2023-03-05T06:19:15.219Z,66.07
2023-03-05T06:21:43.611Z,65.94
2023-03-05T06:24:10.861Z,66.08
2023-03-05T06:26:37.815Z,66.12
2023-03-05T06:29:04.728Z,66.14
2023-03-05T06:31:31.723Z,66.17
2023-03-05T06:34:01.444Z,66.23
2023-03-05T06:36:29.159Z,66.26
2023-03-05T06:38:56.924Z,66.27
2023-03-05T06:41:26.884Z,66.34
2023-03-05T06:43:54.742Z,66.41
2023-03-05T06:46:23.235Z,66.60
2023-03-05T06:48:51.328Z,66.59
2023-03-05T06:51:25.127Z,66.51
2023-03-05T06:53:52.873Z,66.71
2023-03-05T06:56:20.843Z,66.68
2023-03-05T06:58:51.400Z,66.76
2023-03-05T07:01:19.602Z,66.84
2023-03-05T07:03:53.147Z,66.86
2023-03-05T07:06:20.748Z,66.75
2023-03-05T07:08:48.550Z,66.88
2023-03-05T07:11:17.925Z,67.10
2023-03-05T07:13:46.922Z,67.00
2023-03-05T07:16:25.294Z,67.01
2023-03-05T07:18:52.597Z,67.02
2023-03-05T07:21:21.782Z,67.19
2023-03-05T07:23:49.157Z,67.13
2023-03-05T07:26:16.695Z,66.99
2023-03-05T07:28:43.909Z,67.12
2023-03-05T07:31:19.421Z,67.10
2023-03-05T07:33:47.599Z,67.26
2023-03-05T07:36:15.079Z,67.14
2023-03-05T07:38:42.101Z,67.22
2023-03-05T07:41:13.713Z,67.22
2023-03-05T07:43:41.241Z,67.27
2023-03-05T07:46:10.516Z,67.34
2023-03-05T07:48:37.539Z,67.16
2023-03-05T07:51:15.246Z,67.13
2023-03-05T07:53:43.925Z,67.19
2023-03-05T07:56:11.686Z,67.17
2023-03-05T07:58:39.142Z,67.16
2023-03-05T08:01:15.197Z,67.00
2023-03-05T08:03:43.134Z,66.92
2023-03-05T08:06:11.811Z,67.01
2023-03-05T08:08:38.757Z,66.99
2023-03-05T08:11:07.914Z,67.04
2023-03-05T08:13:36.114Z,66.84
2023-03-05T08:16:12.426Z,66.86
2023-03-05T08:18:39.467Z,66.92
2023-03-05T08:21:07.081Z,66.83
2023-03-05T08:23:34.724Z,67.02
2023-03-05T08:26:02.893Z,66.76
2023-03-05T08:28:29.594Z,66.76
2023-03-05T08:30:56.508Z,66.82
2023-03-05T08:33:23.296Z,66.62
2023-03-05T08:35:50.017Z,66.73
2023-03-05T08:38:17.301Z,66.73
2023-03-05T08:40:44.877Z,66.70
2023-03-05T08:43:11.687Z,66.75
2023-03-05T08:45:40.190Z,66.78
2023-03-05T08:48:07.142Z,66.79
2023-03-05T08:50:37.035Z,66.83
2023-03-05T08:53:04.890Z,66.83
2023-03-05T08:55:32.680Z,66.82
2023-03-05T08:57:59.558Z,66.84
2023-03-05T09:00:26.392Z,66.82
2023-03-05T09:02:53.156Z,66.79
2023-03-05T09:05:20.262Z,66.76
2023-03-05T09:07:46.980Z,66.69
2023-03-05T09:10:14.896Z,66.82
2023-03-05T09:12:42.722Z,66.73
2023-03-05T09:15:11.859Z,66.55
2023-03-05T09:17:39.607Z,66.54
2023-03-05T09:20:07.185Z,66.54
2023-03-05T09:22:33.981Z,66.64
2023-03-05T09:25:00.744Z,66.67
2023-03-05T09:27:27.400Z,66.77
2023-03-05T09:29:54.129Z,66.75
2023-03-05T09:32:20.902Z,66.76
2023-03-05T09:34:47.594Z,66.80
2023-03-05T09:37:14.353Z,66.78
2023-03-05T09:39:41.350Z,66.59
2023-03-05T09:42:29.657Z,66.50
2023-03-05T09:45:27.486Z,66.51
2023-03-05T09:48:19.237Z,66.21
2023-03-05T09:51:04.659Z,65.95
2023-03-05T09:53:53.994Z,65.99
2023-03-05T09:56:26.860Z,65.66
2023-03-05T09:58:57.942Z,65.62
2023-03-05T10:01:34.783Z,65.50
2023-03-05T10:04:19.111Z,65.35
2023-03-05T10:07:03.416Z,65.14
2023-03-05T10:09:51.354Z,65.03
2023-03-05T10:12:39.128Z,64.96
2023-03-05T10:15:13.295Z,64.75
2023-03-05T10:17:46.202Z,64.51
2023-03-05T10:20:24.845Z,64.69
2023-03-05T10:23:00.268Z,64.66
2023-03-05T10:25:54.703Z,64.45
2023-03-05T10:28:44.177Z,64.33
2023-03-05T10:31:36.685Z,64.20
2023-03-05T10:34:15.518Z,64.14
2023-03-05T10:36:54.056Z,64.06
2023-03-05T10:39:45.629Z,63.66
2023-03-05T10:42:51.272Z,63.62
2023-03-05T10:45:39.165Z,63.26
2023-03-05T10:48:16.577Z,63.21
2023-03-05T10:50:48.641Z,63.07
2023-03-05T10:53:33.564Z,62.97
2023-03-05T10:56:06.013Z,62.84
2023-03-05T10:58:33.473Z,62.83
2023-03-05T11:01:03.962Z,62.47
2023-03-05T11:03:53.091Z,62.60
2023-03-05T11:06:46.053Z,62.48
2023-03-05T11:09:32.557Z,62.46
2023-03-05T11:12:11.891Z,62.45
2023-03-05T11:15:22.793Z,62.05
2023-03-05T11:18:16.143Z,61.90
2023-03-05T11:20:43.086Z,61.61
2023-03-05T11:23:15.831Z,61.65
2023-03-05T11:25:58.356Z,61.42
2023-03-05T11:28:33.210Z,60.96
2023-03-05T11:31:18.857Z,61.05
2023-03-05T11:33:58.034Z,60.61
2023-03-05T11:36:31.164Z,60.84
2023-03-05T11:39:15.162Z,60.71
2023-03-05T11:41:47.968Z,60.54
2023-03-05T11:44:21.649Z,60.37
2023-03-05T11:46:52.800Z,60.36
2023-03-05T11:49:24.601Z,59.62
2023-03-05T11:51:56.479Z,59.83
2023-03-05T11:54:31.685Z,59.34
2023-03-05T11:57:00.718Z,59.20
2023-03-05T11:59:35.888Z,59.54
2023-03-05T12:02:03.954Z,59.38
2023-03-05T12:04:32.791Z,59.47
2023-03-05T12:07:03.273Z,59.77
2023-03-05T12:10:02.338Z,60.06
2023-03-05T12:12:36.407Z,60.01
2023-03-05T12:15:45.699Z,60.23
2023-03-05T12:22:55.245Z,60.04
2023-03-05T12:25:45.245Z,60.44
2023-03-05T12:28:17.813Z,60.09
2023-03-05T12:30:47.288Z,60.26
2023-03-05T12:33:42.842Z,60.31
2023-03-05T12:36:21.481Z,60.64
2023-03-05T12:38:55.422Z,60.86
2023-03-05T12:41:27.424Z,60.72
2023-03-05T12:44:07.084Z,60.80
2023-03-05T12:46:35.988Z,61.00
2023-03-05T12:49:18.097Z,61.25
2023-03-05T12:51:47.319Z,61.39
2023-03-05T12:54:32.754Z,61.69
2023-03-05T12:57:03.827Z,61.73
2023-03-05T12:59:44.127Z,61.24
2023-03-05T13:02:31.239Z,61.04
2023-03-05T13:05:03.108Z,60.78
2023-03-05T13:07:29.913Z,60.47
2023-03-05T13:09:58.809Z,60.24
2023-03-05T13:12:29.300Z,60.07
2023-03-05T13:15:06.945Z,60.31
2023-03-05T13:17:35.344Z,60.68
2023-03-05T13:20:23.478Z,60.92
2023-03-05T13:23:23.144Z,61.40
2023-03-05T13:26:12.205Z,61.62
2023-03-05T13:28:40.132Z,62.20
2023-03-05T13:31:18.753Z,62.59
2023-03-05T13:33:58.053Z,63.01
2023-03-05T13:36:26.876Z,63.34
2023-03-05T13:38:54.478Z,63.29
2023-03-05T13:41:30.710Z,63.48
2023-03-05T13:44:00.094Z,63.15
2023-03-05T13:46:34.259Z,62.77
2023-03-05T13:49:39.402Z,61.73
2023-03-05T13:52:06.739Z,60.83
2023-03-05T13:54:33.941Z,58.34
2023-03-05T13:57:06.844Z,55.46
2023-03-05T13:59:39.011Z,52.80
2023-03-05T14:02:19.886Z,50.29
2023-03-05T14:04:47.492Z,49.14
2023-03-05T14:07:20.371Z,48.90
2023-03-05T14:09:49.132Z,48.95
2023-03-05T14:12:37.230Z,49.03
2023-03-05T14:15:21.590Z,49.11
2023-03-05T14:17:48.580Z,48.53
2023-03-05T14:20:23.161Z,48.16
2023-03-05T14:22:53.230Z,47.07
2023-03-05T14:25:25.669Z,45.84
2023-03-05T14:27:52.612Z,44.65
2023-03-05T14:30:21.988Z,44.19
2023-03-05T14:32:51.212Z,44.71
2023-03-05T14:35:24.615Z,45.05
2023-03-05T14:37:53.531Z,45.64
2023-03-05T14:40:23.718Z,46.36
2023-03-05T14:42:57.745Z,46.98
2023-03-05T14:45:30.153Z,47.29
2023-03-05T14:48:00.200Z,47.94
2023-03-05T14:51:29.619Z,46.20
2023-03-05T14:54:59.036Z,43.57
2023-03-05T14:58:25.505Z,41.17
2023-03-05T15:04:46.601Z,41.47
2023-03-05T15:07:30.051Z,41.54
2023-03-05T15:09:57.381Z,41.86
2023-03-05T15:12:25.048Z,41.51
2023-03-05T15:14:53.132Z,40.32
2023-03-05T15:17:35.695Z,38.65
2023-03-05T15:20:09.329Z,37.28
2023-03-05T15:22:41.969Z,37.52
2023-03-05T15:25:10.451Z,37.82
2023-03-05T15:27:37.738Z,38.44
2023-03-05T15:30:06.859Z,38.62
2023-03-05T15:32:33.843Z,39.23
2023-03-05T15:35:01.015Z,40.10
2023-03-05T15:37:27.868Z,40.84
2023-03-05T15:39:54.523Z,41.21
2023-03-05T15:42:21.251Z,42.45
2023-03-05T15:44:48.114Z,43.16
2023-03-05T15:47:14.834Z,43.85
2023-03-05T15:49:41.784Z,44.30
2023-03-05T15:52:08.635Z,44.87
2023-03-05T15:54:39.922Z,45.11
2023-03-05T15:57:09.791Z,45.33
2023-03-05T15:59:37.030Z,45.78
2023-03-05T16:02:03.938Z,46.37
2023-03-05T16:04:30.925Z,46.65
2023-03-05T16:07:00.729Z,47.11
2023-03-05T16:09:32.030Z,47.67
2023-03-05T16:11:59.044Z,47.58
2023-03-05T16:14:27.934Z,48.09
2023-03-05T16:16:58.258Z,47.93
2023-03-05T16:19:27.067Z,48.43
2023-03-05T16:21:53.719Z,48.26
2023-03-05T16:24:20.568Z,48.46
2023-03-05T16:26:47.456Z,48.95
2023-03-05T16:29:14.754Z,49.07
2023-03-05T16:31:43.365Z,48.95
2023-03-05T16:34:10.186Z,49.03
2023-03-05T16:36:36.942Z,49.64
2023-03-05T16:39:05.398Z,49.85
2023-03-05T16:41:32.695Z,50.39
2023-03-05T16:44:00.110Z,50.70
2023-03-05T16:46:29.274Z,50.92
2023-03-05T16:48:57.921Z,51.59
2023-03-05T16:51:24.983Z,51.78
2023-03-05T16:53:52.152Z,52.32
2023-03-05T16:56:20.552Z,52.86
2023-03-05T16:58:47.698Z,53.17
2023-03-05T17:01:19.421Z,53.69
2023-03-05T17:03:48.808Z,54.20
2023-03-05T17:06:19.843Z,54.80
2023-03-05T17:08:47.831Z,54.72
2023-03-05T17:11:15.531Z,55.12
2023-03-05T17:13:43.268Z,55.61
2023-03-05T17:16:12.982Z,55.32
2023-03-05T17:18:41.538Z,55.46
2023-03-05T17:21:09.348Z,55.40
2023-03-05T17:23:37.077Z,55.36
2023-03-05T17:26:15.892Z,55.42
2023-03-05T17:28:43.462Z,55.69
2023-03-05T17:31:10.405Z,55.91
2023-03-05T17:33:38.502Z,56.03
2023-03-05T17:36:06.178Z,56.24
2023-03-05T17:38:32.817Z,56.19
2023-03-05T17:40:59.523Z,56.72
2023-03-05T17:43:26.616Z,56.89
2023-03-05T17:45:53.345Z,56.96
2023-03-05T17:48:21.324Z,57.36
2023-03-05T17:50:48.594Z,57.53
2023-03-05T17:53:15.341Z,58.03
2023-03-05T17:55:42.747Z,58.44
2023-03-05T17:58:09.666Z,58.76
2023-03-05T18:00:37.286Z,58.97
2023-03-05T18:03:04.624Z,59.15
2023-03-05T18:05:31.594Z,59.35
2023-03-05T18:07:59.177Z,59.75
2023-03-05T18:10:27.075Z,59.80
2023-03-05T18:12:55.156Z,60.26
2023-03-05T18:15:23.698Z,60.53
2023-03-05T18:17:51.186Z,60.87
2023-03-05T18:20:37.462Z,61.12
2023-03-05T18:23:05.865Z,61.38
2023-03-05T18:25:32.756Z,61.73
2023-03-05T18:28:13.304Z,61.78
2023-03-05T18:30:41.313Z,62.15
2023-03-05T18:33:11.790Z,62.61
2023-03-05T18:35:38.711Z,62.53
2023-03-05T18:38:05.476Z,62.94
2023-03-05T18:40:35.985Z,62.99
2023-03-05T18:43:03.653Z,63.17
2023-03-05T18:45:34.254Z,63.24
2023-03-05T18:48:01.064Z,63.61
2023-03-05T18:50:29.652Z,63.63
2023-03-05T18:52:56.691Z,63.95
2023-03-05T18:55:26.639Z,63.87
2023-03-05T18:57:57.076Z,64.07
2023-03-05T19:00:27.296Z,64.47
2023-03-05T19:02:55.128Z,64.48
2023-03-05T19:05:22.310Z,64.50
2023-03-05T19:07:49.537Z,64.82
2023-03-05T19:10:17.826Z,64.90
2023-03-05T19:13:05.756Z,64.71
2023-03-05T19:15:32.802Z,64.93
2023-03-05T19:17:59.683Z,65.39
2023-03-05T19:20:26.498Z,65.56
2023-03-05T19:22:58.063Z,65.51
2023-03-05T19:25:24.965Z,65.49
2023-03-05T19:27:51.812Z,65.56
2023-03-05T19:30:18.831Z,65.83
2023-03-05T19:32:48.389Z,65.86
2023-03-05T19:35:16.978Z,65.93
2023-03-05T19:37:46.196Z,65.98
2023-03-05T19:40:14.659Z,66.31
2023-03-05T19:42:41.528Z,66.38
2023-03-05T19:45:09.154Z,66.53
2023-03-05T19:47:36.269Z,66.72
2023-03-05T19:50:09.467Z,66.78
2023-03-05T19:52:39.198Z,67.01
2023-03-05T19:55:06.701Z,67.28
2023-03-05T19:57:39.160Z,67.34
2023-03-05T20:00:06.613Z,67.72
2023-03-05T20:02:33.438Z,67.99
2023-03-05T20:05:00.663Z,67.95
2023-03-05T20:07:27.495Z,68.25
2023-03-05T20:09:57.023Z,68.28
2023-03-05T20:12:24.524Z,68.60
2023-03-05T20:14:51.584Z,68.66
2023-03-05T20:17:19.733Z,68.91
2023-03-05T20:19:47.112Z,68.94
2023-03-05T20:22:13.933Z,69.46
2023-03-05T20:24:40.666Z,69.33
2023-03-05T20:28:07.279Z,69.57
2023-03-05T20:31:35.098Z,69.93
2023-03-05T20:38:20.954Z,70.38
2023-03-05T20:41:11.495Z,70.78
2023-03-05T20:44:03.689Z,70.87
2023-03-05T20:47:30.189Z,71.09
2023-03-05T20:50:56.883Z,71.30
2023-03-05T20:53:37.402Z,71.69
2023-03-05T20:56:04.488Z,71.49
2023-03-05T20:58:31.439Z,71.79
2023-03-05T21:02:01.231Z,72.20
2023-03-05T21:04:28.105Z,72.19
2023-03-05T21:06:54.827Z,72.13
2023-03-05T21:09:21.787Z,72.58
2023-03-05T21:12:48.285Z,72.56
2023-03-05T21:15:20.544Z,72.85
2023-03-05T21:17:47.619Z,72.76
2023-03-05T21:21:14.180Z,73.19
2023-03-05T21:23:40.930Z,73.32
2023-03-05T21:27:08.044Z,73.27
2023-03-05T21:34:18.529Z,73.73
2023-03-05T21:37:27.370Z,73.46
2023-03-05T21:40:51.619Z,73.64
2023-03-05T21:43:47.194Z,73.80
2023-03-05T21:46:38.129Z,74.04
2023-03-05T21:50:04.652Z,74.22
2023-03-05T21:52:31.754Z,74.10
2023-03-05T21:54:58.608Z,74.35
2023-03-05T21:57:27.213Z,74.46
2023-03-05T21:59:54.267Z,74.46
2023-03-05T22:02:21.576Z,74.37
2023-03-05T22:04:49.192Z,74.52
2023-03-05T22:07:17.109Z,74.66
2023-03-05T22:09:44.117Z,74.79
2023-03-05T22:12:15.188Z,75.06
2023-03-05T22:14:42.152Z,74.92
2023-03-05T22:17:09.034Z,75.00
2023-03-05T22:19:35.756Z,75.14
2023-03-05T22:22:03.046Z,75.11
2023-03-05T22:24:29.848Z,75.31
2023-03-05T22:26:56.541Z,75.33
2023-03-05T22:29:23.415Z,75.71
2023-03-05T22:31:50.195Z,75.45
2023-03-05T22:34:16.865Z,75.60
2023-03-05T22:36:43.728Z,75.79
2023-03-05T22:39:10.415Z,75.90
2023-03-05T22:41:37.058Z,76.15
2023-03-05T22:44:04.123Z,76.08
2023-03-05T22:46:30.929Z,76.26
2023-03-05T22:48:57.688Z,76.25
2023-03-05T22:51:24.797Z,76.40
2023-03-05T22:53:51.489Z,76.42
2023-03-05T22:56:20.203Z,76.63
2023-03-05T22:58:47.300Z,76.84
2023-03-05T23:01:24.481Z,76.80
2023-03-05T23:03:57.445Z,76.90
2023-03-05T23:06:24.715Z,77.08
2023-03-05T23:08:51.441Z,77.00
2023-03-05T23:11:18.356Z,77.16
2023-03-05T23:13:45.063Z,77.34
2023-03-05T23:16:11.741Z,77.08
2023-03-05T23:18:38.617Z,77.40
2023-03-05T23:21:05.582Z,77.36
2023-03-05T23:23:32.243Z,77.29
2023-03-05T23:25:59.288Z,77.31
2023-03-05T23:28:26.144Z,77.45
2023-03-05T23:30:52.862Z,77.59
2023-03-05T23:33:22.375Z,77.66
2023-03-05T23:36:00.390Z,77.48
2023-03-05T23:38:29.856Z,77.58
2023-03-05T23:41:01.112Z,77.74
2023-03-05T23:43:28.237Z,77.70
2023-03-05T23:45:55.314Z,77.70
2023-03-05T23:53:04.577Z,77.89
2023-03-05T23:55:35.043Z,77.79
2023-03-05T23:58:01.993Z,77.87
